createdAt,value
2019-01-25T00:03:02.232Z,54.30
2019-01-25T00:08:08.663Z,54.80
2019-01-25T00:13:16.541Z,54.40
2019-01-25T00:18:22.868Z,54.30
2019-01-25T00:23:27.512Z,54.50
2019-01-25T00:28:33.144Z,54.50
2019-01-25T00:33:39.427Z,54.40
2019-01-25T00:38:44.387Z,54.40
2019-01-25T00:43:50.639Z,54.60
2019-01-25T00:48:56.570Z,54.50
2019-01-25T00:54:02.033Z,54.50
2019-01-25T00:59:07.136Z,54.40
2019-01-25T01:04:12.436Z,54.40
2019-01-25T01:09:17.075Z,54.40
2019-01-25T01:14:21.744Z,54.40
2019-01-25T01:19:26.441Z,54.30
2019-01-25T01:24:32.509Z,54.40
2019-01-25T01:29:37.136Z,54.30
2019-01-25T01:34:43.914Z,54.40
2019-01-25T02:08:43.977Z,54.50
2019-01-25T02:13:49.461Z,54.50
2019-01-25T02:18:54.275Z,54.50
2019-01-25T02:23:58.981Z,54.50
2019-01-25T02:29:03.779Z,54.80
2019-01-25T02:34:08.585Z,54.50
2019-01-25T02:39:14.311Z,54.50
2019-01-25T02:44:18.980Z,54.50
2019-01-25T02:49:25.468Z,54.50
2019-01-25T02:54:30.572Z,54.50
2019-01-25T02:59:36.583Z,54.40
2019-01-25T03:04:41.295Z,54.40
2019-01-25T03:09:46.305Z,54.30
2019-01-25T03:14:50.942Z,54.20
2019-01-25T03:19:55.579Z,54.10
2019-01-25T03:25:00.545Z,54.20
2019-01-25T03:30:08.369Z,54.30
2019-01-25T03:35:15.039Z,54.30
2019-01-25T03:40:27.483Z,54.50
2019-01-25T03:45:29.471Z,54.50
2019-01-25T03:50:35.744Z,54.40
2019-01-25T03:55:40.621Z,54.40
2019-01-25T04:00:45.340Z,54.30
2019-01-25T04:05:51.051Z,54.40
2019-01-25T04:11:03.103Z,54.20
2019-01-25T04:16:03.216Z,54.30
2019-01-25T04:21:07.941Z,54.30
2019-01-25T04:26:14.427Z,54.50
2019-01-25T04:31:20.308Z,54.60
2019-01-25T04:36:25.112Z,54.30
2019-01-25T04:41:30.057Z,54.30
2019-01-25T04:46:34.718Z,54.40
2019-01-25T04:51:40.646Z,54.40
2019-01-25T04:56:46.674Z,54.20
2019-01-25T05:01:52.207Z,54.40
2019-01-25T05:06:56.927Z,54.50
2019-01-25T05:12:01.644Z,54.40
2019-01-25T05:17:10.741Z,54.50
2019-01-25T05:22:15.332Z,54.50
2019-01-25T05:27:21.914Z,54.50
2019-01-25T05:32:26.633Z,54.50
2019-01-25T05:37:31.272Z,54.50
2019-01-25T05:42:35.920Z,54.50
2019-01-25T05:47:40.565Z,54.50
2019-01-25T05:52:45.388Z,54.50
2019-01-25T05:57:50.177Z,54.50
2019-01-25T06:02:57.592Z,54.60
2019-01-25T06:08:04.775Z,54.70
2019-01-25T06:13:09.493Z,54.70
2019-01-25T06:18:14.844Z,54.90
2019-01-25T06:23:19.740Z,54.80
2019-01-25T06:28:24.803Z,54.80
2019-01-25T06:33:29.576Z,54.70
2019-01-25T06:38:34.233Z,54.70
2019-01-25T06:43:38.937Z,54.70
2019-01-25T06:48:43.569Z,54.80
2019-01-25T06:53:48.633Z,54.80
2019-01-25T06:59:18.734Z,54.90
2019-01-25T07:04:23.376Z,54.70
2019-01-25T07:09:28.190Z,54.80
2019-01-25T07:14:32.876Z,54.70
2019-01-25T07:19:38.805Z,54.90
2019-01-25T07:24:44.995Z,54.80
2019-01-25T07:29:51.276Z,54.80
2019-01-25T07:34:55.972Z,54.70
2019-01-25T07:40:03.262Z,55.20
2019-01-25T07:45:08.113Z,54.50
2019-01-25T07:50:13.088Z,54.40
2019-01-25T07:55:17.928Z,54.20
2019-01-25T08:00:23.550Z,54.30
2019-01-25T08:05:28.895Z,54.50
2019-01-25T08:10:33.645Z,54.50
2019-01-25T08:15:41.710Z,54.50
2019-01-25T08:20:47.014Z,54.50
2019-01-25T08:25:51.806Z,54.50
2019-01-25T08:30:58.065Z,54.50
2019-01-25T08:36:04.056Z,54.60
2019-01-25T08:41:10.233Z,54.60
2019-01-25T08:46:14.895Z,54.40
2019-01-25T08:51:19.560Z,54.60
2019-01-25T08:56:25.800Z,54.70
2019-01-25T09:01:30.584Z,54.70
2019-01-25T09:06:36.661Z,54.90
2019-01-25T09:11:42.292Z,54.80
2019-01-25T09:16:50.100Z,54.90
2019-01-25T09:21:54.988Z,54.90
2019-01-25T09:27:00.867Z,54.90
2019-01-25T09:32:05.747Z,55.20
2019-01-25T09:37:10.548Z,55.20
2019-01-25T09:42:16.148Z,55.20
2019-01-25T09:47:22.075Z,55.20
2019-01-25T09:52:26.733Z,55.40
2019-01-25T09:57:32.659Z,55.50
2019-01-25T10:02:37.312Z,55.50
2019-01-25T10:07:41.952Z,55.60
2019-01-25T10:12:46.587Z,55.60
2019-01-25T10:17:51.355Z,55.80
2019-01-25T10:22:56.227Z,55.90
2019-01-25T10:28:01.033Z,55.80
2019-01-25T10:33:07.064Z,56.10
2019-01-25T10:38:11.812Z,56.00
2019-01-25T10:43:18.628Z,56.00
2019-01-25T10:48:23.266Z,56.10
2019-01-25T10:53:27.923Z,56.10
2019-01-25T10:58:32.795Z,56.10
2019-01-25T11:03:37.511Z,56.10
2019-01-25T11:08:42.174Z,56.30
2019-01-25T11:13:47.191Z,56.30
2019-01-25T11:18:53.388Z,56.30
2019-01-25T11:23:58.028Z,56.50
2019-01-25T11:29:02.667Z,56.60
2019-01-25T11:34:07.313Z,56.70
2019-01-25T11:39:12.315Z,56.60
2019-01-25T11:44:17.317Z,56.50
2019-01-25T11:49:21.969Z,56.70
2019-01-25T11:54:26.619Z,56.60
2019-01-25T11:59:31.281Z,56.60
2019-01-25T12:04:37.225Z,56.60
2019-01-25T12:09:43.231Z,56.70
2019-01-25T12:14:48.283Z,56.80
2019-01-25T12:19:54.644Z,56.80
2019-01-25T12:24:59.531Z,56.80
2019-01-25T12:30:22.295Z,56.80
2019-01-25T12:35:28.103Z,56.90
2019-01-25T12:40:33.113Z,57.00
2019-01-25T12:45:37.755Z,57.10
2019-01-25T12:50:53.841Z,57.20
2019-01-25T12:55:58.574Z,57.20
2019-01-25T13:01:03.392Z,57.30
2019-01-25T13:06:09.737Z,57.30
2019-01-25T13:11:17.679Z,57.30
2019-01-25T13:16:22.335Z,57.40
2019-01-25T13:21:27.012Z,57.30
2019-01-25T13:26:33.251Z,57.30
2019-01-25T13:31:39.549Z,57.30
2019-01-25T13:36:45.552Z,57.40
